createdAt,value
2019-01-27T00:02:18.053Z,-0.39
2019-01-27T00:04:43.928Z,-0.38
2019-01-27T00:07:13.729Z,-0.39
2019-01-27T00:09:39.584Z,-0.38
2019-01-27T00:12:05.532Z,-0.44
2019-01-27T00:14:31.377Z,-0.48
2019-01-27T00:16:57.362Z,-0.37
2019-01-27T00:19:23.265Z,-0.31
2019-01-27T00:21:49.133Z,-0.46
2019-01-27T00:24:15.115Z,-0.50
2019-01-27T00:26:41.090Z,-0.43
2019-01-27T00:29:07.068Z,-0.46
2019-01-27T00:31:32.935Z,-0.47
2019-01-27T00:33:58.819Z,-0.37
2019-01-27T00:36:24.695Z,-0.42
2019-01-27T00:38:50.590Z,-0.44
2019-01-27T00:41:16.473Z,-0.44
2019-01-27T00:43:42.350Z,-0.45
2019-01-27T00:46:08.230Z,-0.47
2019-01-27T00:48:34.156Z,-0.36
2019-01-27T00:51:00.071Z,-0.40
2019-01-27T00:53:25.938Z,-0.41
2019-01-27T00:55:51.862Z,-0.39
2019-01-27T00:58:17.797Z,-0.35
2019-01-27T01:00:43.640Z,-0.33
2019-01-27T01:03:09.531Z,-0.32
2019-01-27T01:05:35.541Z,-0.23
2019-01-27T01:08:01.475Z,-0.19
2019-01-27T01:10:27.344Z,-0.18
2019-01-27T01:12:53.291Z,-0.13
2019-01-27T01:15:19.141Z,-0.13
2019-01-27T01:17:45.287Z,-0.07
2019-01-27T01:20:20.371Z,-0.07
2019-01-27T01:22:47.228Z,-0.11
2019-01-27T01:25:19.607Z,-0.06
2019-01-27T01:27:45.756Z,-0.09
2019-01-27T01:30:17.538Z,-0.09
2019-01-27T01:32:43.412Z,-0.10
2019-01-27T01:35:09.888Z,0.00
2019-01-27T01:37:35.898Z,0.04
2019-01-27T01:40:03.649Z,0.03
2019-01-27T01:42:29.644Z,0.02
2019-01-27T01:44:55.514Z,-0.04
2019-01-27T01:47:21.377Z,-0.01
2019-01-27T01:49:47.254Z,0.01
2019-01-27T01:52:13.136Z,-0.23
2019-01-27T01:54:39.018Z,-0.23
2019-01-27T01:57:04.892Z,-0.11
2019-01-27T01:59:30.890Z,-0.22
2019-01-27T02:01:56.802Z,-0.13
2019-01-27T02:04:22.760Z,-0.03
2019-01-27T02:06:48.638Z,-0.15
2019-01-27T02:09:14.598Z,-0.14
2019-01-27T02:11:40.530Z,-0.18
2019-01-27T02:14:06.428Z,-0.16
2019-01-27T02:16:32.318Z,-0.33
2019-01-27T02:18:58.230Z,-0.27
2019-01-27T02:21:24.097Z,-0.13
2019-01-27T02:23:50.100Z,-0.15
2019-01-27T02:26:16.026Z,-0.19
2019-01-27T02:28:41.901Z,-0.10
2019-01-27T02:31:07.773Z,-0.06
2019-01-27T02:33:33.820Z,-0.08
2019-01-27T02:35:59.802Z,0.00
2019-01-27T02:38:25.685Z,-0.02
2019-01-27T02:40:51.605Z,-0.02
2019-01-27T02:43:17.467Z,-0.11
2019-01-27T02:45:43.437Z,-0.01
2019-01-27T02:48:09.326Z,-0.10
2019-01-27T02:50:35.231Z,-0.04
2019-01-27T02:53:01.143Z,-0.08
2019-01-27T02:55:27.036Z,-0.09
2019-01-27T02:57:52.922Z,-0.03
2019-01-27T03:00:20.256Z,-0.05
2019-01-27T03:02:46.238Z,-0.05
2019-01-27T03:05:14.408Z,-0.02
2019-01-27T03:07:40.289Z,-0.01
2019-01-27T03:10:15.224Z,-0.02
2019-01-27T03:12:41.129Z,-0.08
2019-01-27T03:15:09.223Z,-0.05
2019-01-27T03:17:35.073Z,0.04
2019-01-27T03:20:00.955Z,0.01
2019-01-27T03:22:26.842Z,-0.12
2019-01-27T03:24:52.724Z,-0.09
2019-01-27T03:27:18.684Z,-0.15
2019-01-27T03:29:44.578Z,-0.15
2019-01-27T03:32:10.458Z,-0.09
2019-01-27T03:34:36.467Z,-0.11
2019-01-27T03:37:02.375Z,-0.12
2019-01-27T03:39:28.272Z,-0.08
2019-01-27T03:41:54.225Z,-0.11
2019-01-27T03:44:20.071Z,-0.15
2019-01-27T03:46:45.934Z,-0.17
2019-01-27T03:49:11.851Z,-0.11
2019-01-27T03:51:37.715Z,-0.12
2019-01-27T03:54:03.600Z,-0.12
2019-01-27T03:56:29.473Z,-0.13
2019-01-27T03:58:55.372Z,-0.12
2019-01-27T04:01:21.256Z,-0.07
2019-01-27T04:03:47.147Z,0.04
2019-01-27T04:06:13.006Z,0.05
2019-01-27T04:08:38.887Z,-0.04
2019-01-27T04:11:04.817Z,0.04
2019-01-27T04:13:30.698Z,-0.08
2019-01-27T04:15:56.599Z,-0.06
2019-01-27T04:18:22.488Z,-0.06
2019-01-27T04:20:48.402Z,-0.08
2019-01-27T04:23:14.256Z,0.06
2019-01-27T04:25:42.038Z,0.01
2019-01-27T04:28:07.936Z,-0.04
2019-01-27T04:30:35.698Z,0.04
2019-01-27T04:33:01.673Z,0.05
2019-01-27T04:35:27.597Z,0.05
2019-01-27T04:37:53.489Z,0.04
2019-01-27T04:40:21.004Z,0.02
2019-01-27T04:42:46.850Z,0.12
2019-01-27T04:45:15.784Z,-0.03
2019-01-27T04:47:41.634Z,0.09
2019-01-27T04:50:10.202Z,0.12
2019-01-27T04:52:36.099Z,0.29
2019-01-27T04:55:04.996Z,0.36
2019-01-27T04:57:30.901Z,0.38
2019-01-27T04:59:56.798Z,0.50
2019-01-27T05:02:24.681Z,0.67
2019-01-27T05:04:50.581Z,0.67
2019-01-27T05:07:16.458Z,0.77
2019-01-27T05:09:42.329Z,0.96
2019-01-27T05:12:08.405Z,1.22
2019-01-27T05:14:34.286Z,1.38
2019-01-27T05:17:00.176Z,1.51
2019-01-27T05:19:26.079Z,1.52
2019-01-27T05:21:51.938Z,1.52
2019-01-27T05:24:17.805Z,1.52
2019-01-27T05:26:43.708Z,1.35
2019-01-27T05:29:09.894Z,1.26
2019-01-27T05:31:35.793Z,1.28
2019-01-27T05:34:01.709Z,1.14
2019-01-27T05:36:27.694Z,1.16
2019-01-27T05:38:53.579Z,1.03
2019-01-27T05:41:19.511Z,0.84
2019-01-27T05:43:45.359Z,0.93
2019-01-27T05:46:11.220Z,0.78
2019-01-27T05:48:37.164Z,0.65
2019-01-27T05:51:03.050Z,0.69
2019-01-27T05:53:28.913Z,0.44
2019-01-27T05:55:54.929Z,0.53
2019-01-27T05:58:20.817Z,0.44
2019-01-27T06:00:47.791Z,0.47
2019-01-27T06:03:13.682Z,0.44
2019-01-27T06:05:39.545Z,0.50
2019-01-27T06:08:05.518Z,0.38
2019-01-27T06:10:31.442Z,0.47
2019-01-27T06:13:01.429Z,0.37
2019-01-27T06:15:27.291Z,0.40
2019-01-27T06:17:53.184Z,0.29
2019-01-27T06:20:19.113Z,0.70
2019-01-27T06:22:44.987Z,0.69
2019-01-27T06:25:13.466Z,0.67
2019-01-27T06:27:39.478Z,0.57
2019-01-27T06:30:11.310Z,0.83
2019-01-27T06:32:57.193Z,0.91
2019-01-27T06:35:23.054Z,0.75
2019-01-27T06:37:49.059Z,0.82
2019-01-27T06:40:14.943Z,0.97
2019-01-27T06:42:40.819Z,0.91
2019-01-27T06:45:06.807Z,0.89
2019-01-27T06:47:32.688Z,0.94
2019-01-27T06:49:58.560Z,0.94
2019-01-27T06:52:24.591Z,1.01
2019-01-27T06:54:50.472Z,1.09
2019-01-27T06:57:16.356Z,1.09
2019-01-27T06:59:44.138Z,1.20
2019-01-27T07:02:14.954Z,1.16
2019-01-27T07:04:42.797Z,1.19
2019-01-27T07:07:25.962Z,1.14
2019-01-27T07:10:11.748Z,1.20
2019-01-27T07:12:39.515Z,1.11
2019-01-27T07:15:19.326Z,1.24
2019-01-27T07:17:49.939Z,1.05
2019-01-27T07:20:32.813Z,1.03
2019-01-27T07:23:06.416Z,1.07
2019-01-27T07:25:40.581Z,1.08
2019-01-27T07:28:11.497Z,1.03
2019-01-27T07:30:42.284Z,1.12
2019-01-27T07:33:26.679Z,1.16
2019-01-27T07:36:00.347Z,1.15
2019-01-27T07:38:30.873Z,1.19
2019-01-27T07:41:07.751Z,1.18
2019-01-27T07:43:53.665Z,1.24
2019-01-27T07:46:30.478Z,1.23
2019-01-27T07:49:04.437Z,1.31
2019-01-27T07:51:35.041Z,1.44
2019-01-27T07:54:17.894Z,1.43
2019-01-27T07:56:45.715Z,1.42
2019-01-27T07:59:19.549Z,1.36
2019-01-27T08:01:59.067Z,1.27
2019-01-27T08:04:32.879Z,1.35
2019-01-27T08:07:06.526Z,1.41
2019-01-27T08:09:43.355Z,1.60
2019-01-27T08:12:23.441Z,1.67
2019-01-27T08:15:00.270Z,1.64
2019-01-27T08:17:28.053Z,1.75
2019-01-27T08:20:07.956Z,1.78
2019-01-27T08:22:38.689Z,1.66
2019-01-27T08:25:13.637Z,1.78
2019-01-27T08:27:41.408Z,1.81
2019-01-27T08:30:12.800Z,1.91
2019-01-27T08:32:43.319Z,1.87
2019-01-27T08:35:26.236Z,1.83
2019-01-27T08:38:06.214Z,1.85
2019-01-27T08:40:34.016Z,2.18
2019-01-27T08:43:10.881Z,2.26
2019-01-27T08:45:41.441Z,2.19
2019-01-27T08:48:07.386Z,2.25
2019-01-27T08:50:33.427Z,2.37
2019-01-27T08:52:59.313Z,2.19
2019-01-27T08:55:25.188Z,2.02
2019-01-27T08:57:51.098Z,2.17
2019-01-27T09:00:20.169Z,2.21
2019-01-27T09:03:03.503Z,2.08
2019-01-27T09:05:33.874Z,2.08
2019-01-27T09:08:07.683Z,2.23
2019-01-27T09:10:35.470Z,2.43
2019-01-27T09:13:18.727Z,2.25
2019-01-27T09:15:55.401Z,2.31
2019-01-27T09:18:32.348Z,2.51
2019-01-27T09:21:12.020Z,2.47
2019-01-27T09:23:45.857Z,2.81
2019-01-27T09:26:25.602Z,2.53
2019-01-27T09:28:59.189Z,2.53
2019-01-27T09:31:27.001Z,2.34
2019-01-27T09:33:54.935Z,2.37
2019-01-27T09:36:22.785Z,2.61
2019-01-27T09:38:50.561Z,2.63
2019-01-27T09:41:24.392Z,2.61
2019-01-27T09:44:08.977Z,2.61
2019-01-27T09:46:45.685Z,2.71
2019-01-27T09:49:29.999Z,2.79
2019-01-27T09:52:03.602Z,2.84
2019-01-27T09:54:34.594Z,2.77
2019-01-27T09:57:12.426Z,2.77
2019-01-27T09:59:49.578Z,2.61
2019-01-27T10:02:20.662Z,2.51
2019-01-27T10:04:48.431Z,2.79
2019-01-27T10:07:16.234Z,2.79
2019-01-27T10:09:46.725Z,2.71
2019-01-27T10:12:14.524Z,2.90
2019-01-27T10:14:42.304Z,2.90
2019-01-27T10:17:16.919Z,2.96
2019-01-27T10:19:44.719Z,2.81
2019-01-27T10:22:12.633Z,2.87
2019-01-27T10:24:46.772Z,2.98
2019-01-27T10:27:14.691Z,3.12
2019-01-27T10:29:42.514Z,3.12
2019-01-27T10:32:10.357Z,3.24
2019-01-27T10:34:44.459Z,3.24
2019-01-27T10:37:18.213Z,3.16
2019-01-27T10:39:46.024Z,3.20
2019-01-27T10:42:28.873Z,3.19
2019-01-27T10:44:56.719Z,3.57
2019-01-27T10:47:41.124Z,3.57
2019-01-27T10:50:21.049Z,3.57
2019-01-27T10:53:05.742Z,3.25
2019-01-27T10:55:36.215Z,2.93
2019-01-27T10:58:13.259Z,2.93
2019-01-27T11:00:41.144Z,3.50
2019-01-27T11:03:11.642Z,3.50
2019-01-27T11:05:42.152Z,3.55
2019-01-27T11:08:26.702Z,3.33
2019-01-27T11:10:57.432Z,2.98
2019-01-27T11:13:31.593Z,3.25
2019-01-27T11:15:59.501Z,3.25
2019-01-27T11:18:27.302Z,3.45
2019-01-27T11:21:01.367Z,3.45
2019-01-27T11:23:29.151Z,3.54
2019-01-27T11:26:13.831Z,3.70
2019-01-27T11:28:50.608Z,3.66
2019-01-27T11:31:34.982Z,3.94
2019-01-27T11:34:19.370Z,3.97
2019-01-27T11:36:47.197Z,4.15
2019-01-27T11:39:30.450Z,4.09
2019-01-27T11:42:13.368Z,4.22
2019-01-27T11:44:56.286Z,4.06
2019-01-27T11:47:33.760Z,3.77
2019-01-27T11:50:07.578Z,4.27
2019-01-27T11:52:33.593Z,4.36
2019-01-27T11:54:59.500Z,4.48
2019-01-27T11:57:25.368Z,4.15
2019-01-27T11:59:51.275Z,4.20
2019-01-27T12:02:17.187Z,4.27
2019-01-27T12:04:43.117Z,4.33
2019-01-27T12:07:09.024Z,4.43
2019-01-27T12:09:35.047Z,4.24
2019-01-27T12:12:00.935Z,4.24
2019-01-27T12:14:26.794Z,4.09
2019-01-27T12:16:52.710Z,4.51
2019-01-27T12:19:18.629Z,4.58
2019-01-27T12:21:44.504Z,4.26
2019-01-27T12:24:11.954Z,4.35
2019-01-27T12:26:38.181Z,4.61
2019-01-27T12:29:04.148Z,4.61
2019-01-27T12:31:30.086Z,4.60
2019-01-27T12:33:55.986Z,4.52
2019-01-27T12:36:21.858Z,4.83
2019-01-27T12:38:47.757Z,4.88
2019-01-27T12:41:13.795Z,4.96
2019-01-27T12:43:39.655Z,4.79
2019-01-27T12:46:05.618Z,4.71
2019-01-27T12:48:31.506Z,4.93
2019-01-27T12:50:57.358Z,4.80
2019-01-27T12:53:23.301Z,4.77
2019-01-27T12:55:49.370Z,4.91
2019-01-27T12:58:15.242Z,4.60
2019-01-27T13:00:44.753Z,4.44
2019-01-27T13:03:10.678Z,4.64
2019-01-27T13:05:36.577Z,4.67
2019-01-27T13:08:02.598Z,4.58
2019-01-27T13:10:28.507Z,4.48
2019-01-27T13:12:54.537Z,4.68
2019-01-27T13:15:21.030Z,4.76
2019-01-27T13:17:46.914Z,4.94
2019-01-27T13:20:14.078Z,4.84
2019-01-27T13:22:39.948Z,4.82
2019-01-27T13:25:16.692Z,4.80
2019-01-27T13:27:42.762Z,4.77
2019-01-27T13:30:12.330Z,4.94
2019-01-27T13:32:38.346Z,4.76
2019-01-27T13:35:06.435Z,4.90
2019-01-27T13:37:32.365Z,4.80
2019-01-27T13:39:58.233Z,4.74
2019-01-27T13:42:24.099Z,4.56
2019-01-27T13:44:50.001Z,4.49
2019-01-27T13:47:15.959Z,4.35
2019-01-27T13:49:41.848Z,4.29
2019-01-27T13:52:07.710Z,3.96
2019-01-27T13:54:33.607Z,3.94
2019-01-27T13:56:59.516Z,3.89
2019-01-27T13:59:25.520Z,3.70
2019-01-27T14:01:51.442Z,3.65
2019-01-27T14:04:17.348Z,3.75
2019-01-27T14:06:43.275Z,3.77
2019-01-27T14:09:09.325Z,3.96
2019-01-27T14:11:35.217Z,3.91
2019-01-27T14:14:02.437Z,3.84
2019-01-27T14:16:28.285Z,3.75
2019-01-27T14:18:54.232Z,3.89
2019-01-27T14:21:20.145Z,3.87
2019-01-27T14:23:46.015Z,3.81
2019-01-27T14:26:11.928Z,3.59
2019-01-27T14:28:37.940Z,3.58
2019-01-27T14:31:03.814Z,3.59
2019-01-27T14:33:29.721Z,3.54
2019-01-27T14:35:56.015Z,3.68
2019-01-27T14:38:21.887Z,3.65
2019-01-27T14:40:47.885Z,3.50
2019-01-27T14:43:13.788Z,3.62
2019-01-27T14:45:39.648Z,3.48
2019-01-27T14:48:06.397Z,3.44
2019-01-27T14:50:38.389Z,3.35
2019-01-27T14:53:05.284Z,3.39
2019-01-27T14:55:31.352Z,3.27
2019-01-27T14:57:57.942Z,3.27
2019-01-27T15:00:26.622Z,3.34
2019-01-27T15:02:52.635Z,3.35
2019-01-27T15:05:18.517Z,3.34
2019-01-27T15:07:44.381Z,3.39
2019-01-27T15:10:21.490Z,3.29
2019-01-27T15:12:47.364Z,3.27
2019-01-27T15:15:20.572Z,3.31
2019-01-27T15:17:46.489Z,3.16
2019-01-27T15:20:19.355Z,3.16
2019-01-27T15:22:45.299Z,3.20
2019-01-27T15:25:11.221Z,3.38
2019-01-27T15:27:37.078Z,3.45
2019-01-27T15:30:09.651Z,3.49
2019-01-27T15:32:35.872Z,3.60
2019-01-27T15:35:01.760Z,3.55
2019-01-27T15:37:27.616Z,3.57
2019-01-27T15:39:53.532Z,3.59
2019-01-27T15:42:19.435Z,3.64
2019-01-27T15:44:45.301Z,3.60
2019-01-27T15:47:11.236Z,3.60
2019-01-27T15:49:37.126Z,3.25
2019-01-27T15:52:03.069Z,3.17
2019-01-27T15:54:29.017Z,3.16
2019-01-27T15:56:54.921Z,2.90
2019-01-27T15:59:20.815Z,2.78
2019-01-27T16:01:46.726Z,2.82
2019-01-27T16:04:12.628Z,2.90
2019-01-27T16:06:38.510Z,2.90
2019-01-27T16:09:04.888Z,2.97
2019-01-27T16:11:30.802Z,3.08
2019-01-27T16:13:56.759Z,3.08
2019-01-27T16:16:22.670Z,3.08
2019-01-27T16:18:48.633Z,2.97
2019-01-27T16:21:14.487Z,2.83
2019-01-27T16:23:42.002Z,3.07
2019-01-27T16:26:07.881Z,3.06
2019-01-27T16:28:33.775Z,3.13
2019-01-27T16:31:07.775Z,2.95
2019-01-27T16:33:41.307Z,3.10
2019-01-27T16:36:07.268Z,3.10
2019-01-27T16:38:33.226Z,3.31
2019-01-27T16:40:59.196Z,3.27
2019-01-27T16:43:25.122Z,3.26
2019-01-27T16:45:50.979Z,3.25
2019-01-27T16:48:16.835Z,3.19
2019-01-27T16:50:42.754Z,3.19
2019-01-27T16:53:08.734Z,3.22
2019-01-27T16:55:34.849Z,3.13
2019-01-27T16:58:00.786Z,2.90
2019-01-27T17:00:29.363Z,2.90
2019-01-27T17:02:55.284Z,3.04
2019-01-27T17:05:21.176Z,3.04
2019-01-27T17:07:47.390Z,2.92
2019-01-27T17:10:20.915Z,2.89
2019-01-27T17:12:46.782Z,2.92
2019-01-27T17:15:15.080Z,2.92
2019-01-27T17:17:41.139Z,2.96
2019-01-27T17:20:10.636Z,3.00
2019-01-27T17:22:40.296Z,3.08
2019-01-27T17:25:08.820Z,3.08
2019-01-27T17:27:34.693Z,2.97
2019-01-27T17:30:00.556Z,2.97
2019-01-27T17:32:26.484Z,3.00
2019-01-27T17:34:52.387Z,3.03
2019-01-27T17:37:18.359Z,3.10
2019-01-27T17:39:44.227Z,3.16
2019-01-27T17:42:10.153Z,3.11
2019-01-27T17:44:36.108Z,3.00
2019-01-27T17:47:02.133Z,3.11
2019-01-27T17:49:28.005Z,3.14
2019-01-27T17:51:53.875Z,3.19
2019-01-27T17:54:19.796Z,3.01
2019-01-27T17:56:47.624Z,3.07
2019-01-27T17:59:15.506Z,3.18
2019-01-27T18:01:46.241Z,3.21
2019-01-27T18:04:29.288Z,3.21
2019-01-27T18:07:13.893Z,3.24
2019-01-27T18:09:53.706Z,3.16
2019-01-27T18:12:36.495Z,2.92
2019-01-27T18:15:07.386Z,3.01
2019-01-27T18:17:33.258Z,3.01
2019-01-27T18:19:59.132Z,2.96
2019-01-27T18:22:25.093Z,3.00
2019-01-27T18:24:50.985Z,2.93
2019-01-27T18:27:16.861Z,2.92
2019-01-27T18:29:43.882Z,2.82
2019-01-27T18:32:09.851Z,2.82
2019-01-27T18:34:35.833Z,2.92
2019-01-27T18:37:01.739Z,2.81
2019-01-27T18:39:27.685Z,2.81
2019-01-27T18:41:53.527Z,2.94
2019-01-27T18:44:19.419Z,2.97
2019-01-27T18:46:45.275Z,3.03
2019-01-27T18:49:11.320Z,2.97
2019-01-27T18:51:37.285Z,3.05
2019-01-27T18:54:17.596Z,3.02
2019-01-27T18:56:45.394Z,2.97
2019-01-27T18:59:25.185Z,2.76
2019-01-27T19:02:02.250Z,2.63
2019-01-27T19:04:33.330Z,2.63
2019-01-27T19:07:02.330Z,2.55
2019-01-27T19:09:45.313Z,2.49
2019-01-27T19:12:16.089Z,2.47
2019-01-27T19:14:49.917Z,2.47
2019-01-27T19:17:32.927Z,2.39
2019-01-27T19:20:00.692Z,2.63
2019-01-27T19:22:47.054Z,2.61
2019-01-27T19:25:17.869Z,2.58
2019-01-27T19:27:57.695Z,2.58
2019-01-27T19:30:25.484Z,2.55
2019-01-27T19:32:53.256Z,2.59
2019-01-27T19:35:21.067Z,2.73
2019-01-27T19:37:48.892Z,2.73
2019-01-27T19:40:16.694Z,2.68
2019-01-27T19:42:47.558Z,2.67
2019-01-27T19:45:15.406Z,2.66
2019-01-27T19:47:58.361Z,2.61
2019-01-27T19:50:41.533Z,2.66
2019-01-27T19:53:18.822Z,2.59
2019-01-27T19:56:04.002Z,2.61
2019-01-27T19:58:34.646Z,2.68
2019-01-27T20:01:08.279Z,2.67
2019-01-27T20:03:52.825Z,2.61
2019-01-27T20:06:20.602Z,2.59
2019-01-27T20:09:05.201Z,2.59
2019-01-27T20:11:49.561Z,2.56
2019-01-27T20:14:37.134Z,2.51
2019-01-27T20:17:04.997Z,2.67
2019-01-27T20:19:32.827Z,2.63
2019-01-27T20:22:12.319Z,2.63
2019-01-27T20:24:43.733Z,2.64
2019-01-27T20:27:20.583Z,2.77
2019-01-27T20:30:04.914Z,2.77
2019-01-27T20:32:35.598Z,2.64
2019-01-27T20:35:09.959Z,2.69
2019-01-27T20:37:38.946Z,2.75
2019-01-27T20:40:13.239Z,2.70
2019-01-27T20:42:42.079Z,2.70
2019-01-27T20:45:16.438Z,2.72
2019-01-27T20:47:45.250Z,2.70
2019-01-27T20:50:14.116Z,2.83
2019-01-27T20:52:42.987Z,2.71
2019-01-27T20:55:23.504Z,2.64
2019-01-27T20:57:55.095Z,2.86
2019-01-27T21:00:30.071Z,2.86
2019-01-27T21:02:59.202Z,2.86
2019-01-27T21:05:34.040Z,3.03
2019-01-27T21:08:03.147Z,2.76
2019-01-27T21:10:47.341Z,2.84
2019-01-27T21:13:23.602Z,2.78
2019-01-27T21:15:58.199Z,2.78
2019-01-27T21:18:29.483Z,2.86
2019-01-27T21:20:55.958Z,2.92
2019-01-27T21:23:22.338Z,2.92
2019-01-27T21:25:48.443Z,2.87
2019-01-27T21:28:14.517Z,2.90
2019-01-27T21:30:40.388Z,2.87
2019-01-27T21:33:06.354Z,2.82
2019-01-27T21:35:32.267Z,2.67
2019-01-27T21:37:58.121Z,2.71
2019-01-27T21:40:23.990Z,2.74
2019-01-27T21:42:49.928Z,2.60
2019-01-27T21:45:15.797Z,2.93
2019-01-27T21:47:41.672Z,2.63
2019-01-27T21:50:11.165Z,2.66
2019-01-27T21:52:37.049Z,2.68
2019-01-27T21:55:05.349Z,2.61
2019-01-27T21:57:31.202Z,2.50
2019-01-27T21:59:57.077Z,2.60
2019-01-27T22:02:23.032Z,2.51
2019-01-27T22:04:48.961Z,2.55
2019-01-27T22:07:14.829Z,2.45
2019-01-27T22:09:40.731Z,2.44
2019-01-27T22:12:06.618Z,2.53
2019-01-27T22:14:32.730Z,2.63
2019-01-27T22:16:59.075Z,2.63
2019-01-27T22:19:24.979Z,2.54
2019-01-27T22:21:50.892Z,2.65
2019-01-27T22:24:16.811Z,2.63
2019-01-27T22:26:42.722Z,2.47
2019-01-27T22:29:11.791Z,2.51
2019-01-27T22:31:37.703Z,2.38
2019-01-27T22:34:03.569Z,2.24
2019-01-27T22:36:29.607Z,2.26
2019-01-27T22:38:55.486Z,2.35
2019-01-27T22:41:21.514Z,2.40
2019-01-27T22:43:47.405Z,2.45
2019-01-27T22:46:13.290Z,2.56
2019-01-27T22:48:39.206Z,2.39
2019-01-27T22:51:05.054Z,2.33
2019-01-27T22:53:30.995Z,2.34
2019-01-27T22:55:56.916Z,2.21
2019-01-27T22:58:22.899Z,2.40
2019-01-27T23:00:59.953Z,2.19
2019-01-27T23:03:26.725Z,2.19
2019-01-27T23:05:52.620Z,2.24
2019-01-27T23:08:18.502Z,2.32
2019-01-27T23:10:44.423Z,2.35
2019-01-27T23:13:10.286Z,2.23
2019-01-27T23:15:36.586Z,2.23
2019-01-27T23:18:02.551Z,2.25
2019-01-27T23:20:28.404Z,2.22
2019-01-27T23:22:54.284Z,2.18
2019-01-27T23:25:20.221Z,2.27
2019-01-27T23:27:46.106Z,2.08
2019-01-27T23:30:11.984Z,2.23
2019-01-27T23:32:38.005Z,2.21
2019-01-27T23:35:05.119Z,2.25
2019-01-27T23:37:30.979Z,2.30
2019-01-27T23:39:56.914Z,2.24
2019-01-27T23:42:22.770Z,2.24
2019-01-27T23:44:48.635Z,2.25
2019-01-27T23:47:14.557Z,2.50
2019-01-27T23:49:40.474Z,2.31
2019-01-27T23:52:06.348Z,2.31
2019-01-27T23:54:32.325Z,2.41
2019-01-27T23:56:58.226Z,2.46
2019-01-27T23:59:24.095Z,2.43
